Time;durP1;ratioP1;P1;durP2;ratioP2;P2;SDS_P1;SDS_P2;PMS_P1;PMS_P2;Temp;Humidity;BMP_temperature;BMP_pressure;BME280_temperature;BME280_humidity;BME280_pressure;Samples;Min_cycle;Max_cycle;Signal;HPM_P1;HPM_P2
2023/02/06 00:00:34;;;;;;;8.68;3.55;;;16.90;52.90;;;;;;5112710;28;20209;-58
2023/02/06 00:03:00;;;;;;;9.73;3.58;;;16.90;52.90;;;;;;5113797;28;20216;-58
2023/02/06 00:05:25;;;;;;;7.03;3.15;;;16.90;52.90;;;;;;5113495;28;20208;-58
2023/02/06 00:07:51;;;;;;;8.60;3.50;;;16.90;52.90;;;;;;5113124;28;20205;-58
2023/02/06 00:10:17;;;;;;;7.38;2.90;;;16.90;52.90;;;;;;5113302;28;20508;-57
2023/02/06 00:12:42;;;;;;;8.82;3.22;;;16.80;52.90;;;;;;5113541;28;20718;-58
2023/02/06 00:15:08;;;;;;;5.25;2.92;;;16.80;53.00;;;;;;5112878;28;20623;-56
2023/02/06 00:17:35;;;;;;;6.55;3.30;;;16.80;53.00;;;;;;5113148;28;20300;-58
2023/02/06 00:20:01;;;;;;;6.60;3.25;;;16.80;53.00;;;;;;5113638;28;20235;-57
2023/02/06 00:22:27;;;;;;;7.05;3.22;;;16.70;53.00;;;;;;5112599;28;20188;-54
2023/02/06 00:24:52;;;;;;;7.82;2.90;;;16.70;52.90;;;;;;5113795;28;20173;-56
2023/02/06 00:27:18;;;;;;;7.85;2.95;;;16.70;52.90;;;;;;5113268;28;20173;-56
2023/02/06 00:29:43;;;;;;;10.98;3.75;;;16.70;52.90;;;;;;5112640;28;20243;-57
2023/02/06 00:32:09;;;;;;;6.22;3.20;;;16.70;52.90;;;;;;5113190;28;20646;-57
2023/02/06 00:34:34;;;;;;;7.20;3.35;;;16.70;52.90;;;;;;5115401;27;20176;-58
2023/02/06 00:37:00;;;;;;;6.93;3.03;;;16.60;52.90;;;;;;5116852;28;20181;-58
2023/02/06 00:39:25;;;;;;;6.68;3.35;;;16.60;52.90;;;;;;5117491;28;20181;-58
2023/02/06 00:41:51;;;;;;;6.57;2.80;;;16.70;52.90;;;;;;5116964;28;20173;-58
2023/02/06 00:44:16;;;;;;;6.95;2.90;;;16.70;53.00;;;;;;5117496;28;20173;-58
2023/02/06 00:46:42;;;;;;;9.73;3.22;;;16.60;52.80;;;;;;5117394;28;20263;-57
2023/02/06 00:49:07;;;;;;;5.90;2.80;;;16.60;52.80;;;;;;5116789;28;20696;-55
2023/02/06 00:51:35;;;;;;;7.18;3.22;;;16.60;52.80;;;;;;5117114;28;20201;-57
2023/02/06 00:54:00;;;;;;;9.07;3.30;;;16.60;52.80;;;;;;5117550;28;20594;-52
2023/02/06 00:56:26;;;;;;;5.68;3.25;;;16.60;52.70;;;;;;5116253;28;20675;-56
2023/02/06 00:58:51;;;;;;;7.50;3.35;;;16.60;52.70;;;;;;5117234;28;20687;-57
2023/02/06 01:01:17;;;;;;;8.18;3.05;;;16.50;52.70;;;;;;5116732;28;20200;-57
2023/02/06 01:03:42;;;;;;;8.13;2.97;;;16.60;52.70;;;;;;5116497;28;20252;-58
2023/02/06 01:06:08;;;;;;;6.55;3.17;;;16.50;52.70;;;;;;5117158;28;20260;-58
2023/02/06 01:08:33;;;;;;;9.38;3.22;;;16.50;52.70;;;;;;5116854;28;20268;-58
2023/02/06 01:10:59;;;;;;;7.10;3.80;;;16.50;53.30;;;;;;5116269;28;20197;-57
2023/02/06 01:13:24;;;;;;;7.18;3.05;;;16.50;52.70;;;;;;5116777;28;20222;-56
2023/02/06 01:15:50;;;;;;;9.82;3.63;;;16.50;52.70;;;;;;5116616;28;20199;-58
2023/02/06 01:18:15;;;;;;;7.97;3.22;;;16.50;52.70;;;;;;5116002;28;20277;-53
2023/02/06 01:20:41;;;;;;;7.22;3.03;;;16.50;52.60;;;;;;5116523;28;20219;-56
2023/02/06 01:23:06;;;;;;;4.70;2.55;;;16.50;52.60;;;;;;5116859;28;20173;-55
2023/02/06 01:25:32;;;;;;;7.32;3.20;;;16.40;52.60;;;;;;5115718;28;20172;-55
2023/02/06 01:27:57;;;;;;;8.40;3.38;;;16.50;52.60;;;;;;5116629;28;20260;-53
2023/02/06 01:30:23;;;;;;;8.95;3.15;;;16.40;52.50;;;;;;5116187;28;20282;-55
2023/02/06 01:32:48;;;;;;;9.23;3.45;;;16.40;52.50;;;;;;5115802;28;20234;-58
2023/02/06 01:35:14;;;;;;;5.78;2.80;;;16.40;52.50;;;;;;5116672;28;20173;-57
2023/02/06 01:37:39;;;;;;;7.07;3.17;;;16.40;52.50;;;;;;5116237;28;20580;-58
2023/02/06 01:40:07;;;;;;;6.03;3.08;;;16.40;52.50;;;;;;5115551;28;20165;-57
2023/02/06 01:42:36;;;;;;;5.30;2.55;;;16.40;52.50;;;;;;5115878;28;20549;-58
2023/02/06 01:45:25;;;;;;;7.35;3.08;;;16.40;52.50;;;;;;5115338;28;20169;-55
2023/02/06 01:47:59;;;;;;;7.55;2.90;;;16.40;53.20;;;;;;5102645;28;20184;-55
2023/02/06 01:50:24;;;;;;;7.18;3.08;;;16.40;52.60;;;;;;5097461;28;20181;-54
2023/02/06 01:52:50;;;;;;;7.45;2.88;;;16.30;52.60;;;;;;5097077;28;20180;-51
2023/02/06 01:55:15;;;;;;;6.80;2.97;;;16.30;52.60;;;;;;5097930;28;20184;-54
2023/02/06 01:57:41;;;;;;;5.45;2.55;;;16.30;52.60;;;;;;5115694;28;20262;-56
2023/02/06 02:00:08;;;;;;;6.90;3.28;;;16.30;52.60;;;;;;5080641;28;20181;-56
2023/02/06 02:02:33;;;;;;;7.75;2.83;;;16.30;52.60;;;;;;5115762;28;20210;-58
2023/02/06 02:04:59;;;;;;;7.95;2.85;;;16.30;52.60;;;;;;5097805;28;20225;-55
2023/02/06 02:07:31;;;;;;;7.53;2.80;;;16.30;52.60;;;;;;5096643;28;20178;-56
2023/02/06 02:09:57;;;;;;;6.10;2.95;;;16.30;52.50;;;;;;5097988;28;20181;-55
2023/02/06 02:12:22;;;;;;;4.60;2.60;;;16.30;52.50;;;;;;5115705;28;20528;-57
2023/02/06 02:14:48;;;;;;;8.73;3.83;;;16.30;52.60;;;;;;5115134;28;20172;-58
2023/02/06 02:17:19;;;;;;;8.40;3.28;;;16.20;52.60;;;;;;5097545;28;20208;-58
2023/02/06 02:19:53;;;;;;;5.20;2.75;;;16.20;52.60;;;;;;5115347;28;20273;-57
2023/02/06 02:22:25;;;;;;;5.25;2.65;;;16.20;52.60;;;;;;5114494;28;20172;-53
2023/02/06 02:25:09;;;;;;;5.38;2.65;;;16.20;52.60;;;;;;5097287;28;20627;-54
2023/02/06 02:27:53;;;;;;;8.27;3.67;;;16.20;52.50;;;;;;5081260;28;20181;-54
2023/02/06 02:30:35;;;;;;;5.13;2.55;;;16.20;52.60;;;;;;5115183;28;20169;-55
2023/02/06 02:33:07;;;;;;;7.65;3.45;;;16.20;52.50;;;;;;5097163;28;20264;-57
2023/02/06 02:35:54;;;;;;;6.40;2.72;;;16.20;52.60;;;;;;5114502;28;20173;-57
2023/02/06 02:38:24;;;;;;;4.93;2.45;;;16.20;52.70;;;;;;5114603;28;20209;-56
2023/02/06 02:41:04;;;;;;;7.22;2.90;;;16.20;52.60;;;;;;5097160;28;20522;-58
2023/02/06 02:43:54;;;;;;;5.97;2.58;;;16.20;52.60;;;;;;5114401;28;20526;-54
2023/02/06 02:46:31;;;;;;;8.18;2.95;;;16.10;52.50;;;;;;5080491;28;20400;-55
2023/02/06 02:49:03;;;;;;;6.38;3.10;;;16.10;52.50;;;;;;5097404;28;20250;-56
2023/02/06 02:51:29;;;;;;;8.13;2.58;;;16.10;52.40;;;;;;5114607;28;20249;-51
2023/02/06 02:53:56;;;;;;;8.30;3.08;;;16.10;52.50;;;;;;5079765;28;20691;-54
2023/02/06 02:56:22;;;;;;;5.78;2.70;;;16.10;52.60;;;;;;5113940;28;20177;-54
2023/02/06 02:59:00;;;;;;;7.82;2.88;;;16.10;52.70;;;;;;5114506;28;20572;-55
2023/02/06 03:01:34;;;;;;;8.73;3.38;;;16.10;52.60;;;;;;5098013;28;20546;-57
2023/02/06 03:04:15;;;;;;;6.60;2.67;;;16.10;52.60;;;;;;5079588;28;20650;-57
2023/02/06 03:07:07;;;;;;;7.20;2.80;;;16.10;52.60;;;;;;5096427;28;20181;-57
2023/02/06 03:09:49;;;;;;;5.72;2.55;;;16.10;52.60;;;;;;5080891;28;20169;-56
2023/02/06 03:12:46;;;;;;;5.15;2.60;;;16.00;52.50;;;;;;5080646;28;20650;-58
2023/02/06 03:15:32;;;;;;;7.47;2.83;;;16.10;52.60;;;;;;5114546;28;20169;-54
2023/02/06 03:18:35;;;;;;;5.28;2.80;;;16.00;52.50;;;;;;5098164;28;20232;-57
2023/02/06 03:21:02;;;;;;;5.07;2.58;;;16.00;52.50;;;;;;5114356;28;20630;-52
2023/02/06 03:23:30;;;;;;;7.25;3.13;;;16.10;52.60;;;;;;5096045;28;20632;-50
2023/02/06 03:25:57;;;;;;;5.55;2.47;;;16.00;52.50;;;;;;5078817;28;20177;-52
2023/02/06 03:28:25;;;;;;;6.30;2.63;;;16.00;52.60;;;;;;5078985;28;20642;-53
2023/02/06 03:30:52;;;;;;;7.40;2.72;;;16.00;52.50;;;;;;5078632;28;20172;-56
2023/02/06 03:33:20;;;;;;;7.85;2.70;;;16.00;52.50;;;;;;5095880;28;20173;-58
2023/02/06 03:35:45;;;;;;;5.95;2.65;;;16.00;52.50;;;;;;5079207;28;20693;-57
2023/02/06 03:38:11;;;;;;;6.88;2.83;;;16.00;52.60;;;;;;5113169;28;20214;-57
2023/02/06 03:40:37;;;;;;;7.28;2.80;;;16.00;52.50;;;;;;5113838;28;20169;-57
2023/02/06 03:43:02;;;;;;;6.53;2.83;;;16.00;52.60;;;;;;5114221;28;20206;-57
2023/02/06 03:45:30;;;;;;;5.60;2.47;;;16.00;52.60;;;;;;5078097;28;20537;-52
2023/02/06 03:48:24;;;;;;;4.97;2.72;;;16.00;52.60;;;;;;5079137;28;20198;-57
2023/02/06 03:50:51;;;;;;;10.00;3.13;;;16.00;52.60;;;;;;5108827;28;20279;-56
2023/02/06 03:53:17;;;;;;;7.50;2.67;;;15.90;52.50;;;;;;5078283;28;20613;-56
2023/02/06 03:55:42;;;;;;;8.95;3.35;;;15.90;52.50;;;;;;5095907;28;20169;-57
2023/02/06 03:58:10;;;;;;;7.15;2.83;;;15.90;52.50;;;;;;5095694;28;20232;-55
2023/02/06 04:00:36;;;;;;;7.85;2.75;;;15.90;52.60;;;;;;5094998;28;20320;-58
2023/02/06 04:03:01;;;;;;;5.00;2.15;;;15.90;52.70;;;;;;5078671;28;20181;-57
2023/02/06 04:05:27;;;;;;;7.70;2.53;;;15.90;52.70;;;;;;5078648;28;20275;-58
2023/02/06 04:07:55;;;;;;;6.97;2.92;;;15.90;52.60;;;;;;5112630;28;20197;-57
2023/02/06 04:10:21;;;;;;;6.03;3.05;;;15.90;52.60;;;;;;5113084;28;20589;-55
2023/02/06 04:12:46;;;;;;;7.22;3.13;;;15.90;52.50;;;;;;5113539;28;20653;-57
2023/02/06 04:15:12;;;;;;;6.40;2.65;;;15.90;52.50;;;;;;5112647;28;20536;-54
2023/02/06 04:17:37;;;;;;;8.45;2.85;;;15.90;52.50;;;;;;5113230;28;20671;-57
2023/02/06 04:20:03;;;;;;;8.40;2.63;;;15.80;52.40;;;;;;5112593;28;20642;-57
2023/02/06 04:22:29;;;;;;;5.18;2.35;;;15.90;52.50;;;;;;5113178;28;20177;-56
2023/02/06 04:24:55;;;;;;;7.07;2.90;;;15.80;52.40;;;;;;5113391;28;20238;-55
2023/02/06 04:27:20;;;;;;;5.68;2.35;;;15.80;52.50;;;;;;5112427;28;20256;-55
2023/02/06 04:29:46;;;;;;;5.97;2.70;;;15.80;52.50;;;;;;5113157;28;20227;-54
2023/02/06 04:32:16;;;;;;;6.20;2.30;;;15.80;52.40;;;;;;5113341;28;20224;-60
2023/02/06 04:34:42;;;;;;;6.15;2.72;;;15.80;52.40;;;;;;5112759;28;20207;-58
2023/02/06 04:37:08;;;;;;;5.32;2.50;;;15.80;52.40;;;;;;5113062;28;20595;-58
2023/02/06 04:39:33;;;;;;;6.13;2.40;;;15.80;52.40;;;;;;5094719;28;20181;-56
2023/02/06 04:41:59;;;;;;;6.68;2.72;;;15.80;52.40;;;;;;5112447;28;20204;-58
2023/02/06 04:44:24;;;;;;;6.03;2.40;;;15.80;52.40;;;;;;5113174;28;20177;-56
2023/02/06 04:46:50;;;;;;;6.40;2.40;;;15.80;52.40;;;;;;5113192;28;20265;-51
2023/02/06 04:49:16;;;;;;;4.50;2.30;;;15.70;52.30;;;;;;5112618;28;20177;-51
2023/02/06 04:51:41;;;;;;;7.32;2.50;;;15.70;52.40;;;;;;5113156;28;20173;-55
2023/02/06 04:54:07;;;;;;;7.35;2.50;;;15.70;52.30;;;;;;5113223;28;20576;-54
2023/02/06 04:56:32;;;;;;;5.45;2.10;;;15.70;52.40;;;;;;5112023;28;20203;-57
2023/02/06 04:58:58;;;;;;;6.20;2.50;;;15.70;52.40;;;;;;5112956;28;20304;-52
2023/02/06 05:01:23;;;;;;;6.57;2.55;;;15.70;52.30;;;;;;5112851;28;20176;-57
2023/02/06 05:03:49;;;;;;;6.68;3.10;;;15.70;52.30;;;;;;5112173;28;20636;-58
2023/02/06 05:06:15;;;;;;;5.20;2.30;;;15.70;52.30;;;;;;5113147;28;20182;-57
2023/02/06 05:08:40;;;;;;;6.00;2.28;;;15.70;52.30;;;;;;5112507;28;20180;-58
2023/02/06 05:11:06;;;;;;;5.28;2.60;;;15.70;52.40;;;;;;5112114;28;20169;-57
2023/02/06 05:13:32;;;;;;;4.90;2.25;;;15.70;52.30;;;;;;5112486;28;20184;-58
2023/02/06 05:16:11;;;;;;;4.90;2.58;;;15.70;52.30;;;;;;5112781;28;20176;-59
2023/02/06 05:18:37;;;;;;;4.22;2.30;;;15.70;52.30;;;;;;5112429;28;20255;-57
2023/02/06 05:21:03;;;;;;;6.53;2.30;;;15.70;52.30;;;;;;5116081;28;20620;-55
2023/02/06 05:23:28;;;;;;;6.82;2.58;;;15.60;52.90;;;;;;5115680;28;20173;-57
2023/02/06 05:25:54;;;;;;;6.88;2.25;;;15.60;52.20;;;;;;5116588;28;20192;-53
2023/02/06 05:28:19;;;;;;;7.32;2.53;;;15.60;52.20;;;;;;5116530;28;20189;-57
2023/02/06 05:30:45;;;;;;;6.68;2.63;;;15.60;52.20;;;;;;5116018;28;20179;-57
2023/02/06 05:33:10;;;;;;;5.90;2.47;;;15.60;52.30;;;;;;5116570;28;20169;-58
2023/02/06 05:35:37;;;;;;;7.20;3.08;;;15.60;52.20;;;;;;5116289;28;20185;-58
2023/02/06 05:38:03;;;;;;;5.85;2.83;;;15.60;52.20;;;;;;5115611;28;20208;-56
2023/02/06 05:40:28;;;;;;;5.20;1.98;;;15.60;52.30;;;;;;5116019;28;20173;-59
2023/02/06 05:42:54;;;;;;;5.45;2.15;;;15.60;52.30;;;;;;5116586;28;20173;-58
2023/02/06 05:45:19;;;;;;;5.20;2.40;;;15.60;52.20;;;;;;5115548;28;20256;-56
2023/02/06 05:47:45;;;;;;;4.32;2.20;;;15.50;52.20;;;;;;5116474;28;20261;-57
2023/02/06 05:50:10;;;;;;;6.30;2.28;;;15.60;52.30;;;;;;5116316;28;20176;-52
2023/02/06 05:52:36;;;;;;;5.55;2.55;;;15.50;52.20;;;;;;5115137;28;20173;-55
2023/02/06 05:55:01;;;;;;;6.25;2.10;;;15.50;52.20;;;;;;5116073;28;20545;-53
2023/02/06 05:57:27;;;;;;;5.47;2.50;;;15.50;52.30;;;;;;5115608;28;20671;-53
2023/02/06 05:59:52;;;;;;;5.65;2.40;;;15.50;52.30;;;;;;5115216;28;20173;-56
2023/02/06 06:02:18;;;;;;;4.32;1.88;;;15.50;52.30;;;;;;5115629;28;20180;-57
2023/02/06 06:04:43;;;;;;;4.85;2.40;;;15.50;52.30;;;;;;5115823;28;20184;-58
2023/02/06 06:07:09;;;;;;;5.18;1.98;;;15.50;52.30;;;;;;5115128;28;20173;-57
2023/02/06 06:09:34;;;;;;;7.13;2.60;;;15.50;52.30;;;;;;5115444;28;20184;-57
2023/02/06 06:12:00;;;;;;;6.15;2.45;;;15.50;52.30;;;;;;5115866;28;20170;-58
2023/02/06 06:14:26;;;;;;;5.25;2.33;;;15.50;52.30;;;;;;5114966;28;20611;-58
2023/02/06 06:16:51;;;;;;;5.45;2.25;;;15.50;52.40;;;;;;5115694;28;20176;-55
2023/02/06 06:19:17;;;;;;;7.25;2.58;;;15.50;52.30;;;;;;5115274;28;20228;-57
2023/02/06 06:21:42;;;;;;;3.42;2.00;;;15.40;52.30;;;;;;5114983;28;20223;-57
2023/02/06 06:24:08;;;;;;;4.63;2.38;;;15.40;52.40;;;;;;5115490;28;20165;-57
2023/02/06 06:26:34;;;;;;;4.90;2.22;;;15.40;52.40;;;;;;5114725;28;20221;-57
2023/02/06 06:28:59;;;;;;;4.47;1.95;;;15.40;52.30;;;;;;5115665;28;20659;-57
2023/02/06 06:31:25;;;;;;;5.20;2.10;;;15.50;52.60;;;;;;5114560;28;20569;-58
2023/02/06 06:33:51;;;;;;;3.80;2.60;;;15.50;52.50;;;;;;5114912;28;20886;-58
2023/02/06 06:36:17;;;;;;;5.03;2.20;;;15.50;52.40;;;;;;5115049;28;20173;-56
2023/02/06 06:38:42;;;;;;;4.55;2.05;;;15.50;52.30;;;;;;5115040;28;20201;-57
2023/02/06 06:41:08;;;;;;;4.80;2.10;;;15.50;52.30;;;;;;5114745;28;20169;-58
2023/02/06 06:43:33;;;;;;;3.85;2.30;;;15.50;52.30;;;;;;5115042;28;20264;-58
2023/02/06 06:46:00;;;;;;;3.97;2.10;;;15.60;52.40;;;;;;5115345;28;20298;-57
2023/02/06 06:48:26;;;;;;;4.93;2.20;;;15.60;52.40;;;;;;5113979;28;20169;-57
2023/02/06 06:50:51;;;;;;;3.13;2.10;;;15.50;52.30;;;;;;5114968;28;20259;-55
2023/02/06 06:53:17;;;;;;;4.13;1.95;;;15.50;52.30;;;;;;5114603;28;20183;-55
2023/02/06 06:55:43;;;;;;;4.57;2.33;;;15.50;52.40;;;;;;5114383;28;20650;-57
2023/02/06 06:58:08;;;;;;;6.22;1.92;;;15.50;52.30;;;;;;5114946;28;20311;-53
2023/02/06 07:00:34;;;;;;;4.05;2.00;;;15.50;52.40;;;;;;5114531;28;20339;-58
2023/02/06 07:02:59;;;;;;;5.53;2.28;;;15.50;52.30;;;;;;5114054;28;20606;-58
2023/02/06 07:05:25;;;;;;;3.65;1.80;;;15.60;52.30;;;;;;5114229;28;20592;-57
2023/02/06 07:07:50;;;;;;;4.07;2.22;;;15.60;52.20;;;;;;5114587;28;20655;-59
2023/02/06 07:10:16;;;;;;;5.60;2.00;;;15.70;52.20;;;;;;5113868;28;20264;-57
2023/02/06 07:12:41;;;;;;;4.57;1.90;;;15.90;52.10;;;;;;5114480;28;20268;-58
2023/02/06 07:15:07;;;;;;;5.07;2.33;;;16.10;51.90;;;;;;5114330;28;20185;-55
2023/02/06 07:17:33;;;;;;;5.00;1.90;;;16.30;51.70;;;;;;5113375;28;20572;-55
2023/02/06 07:19:58;;;;;;;3.28;2.13;;;16.50;51.50;;;;;;5114352;28;20221;-56
2023/02/06 07:22:24;;;;;;;4.18;1.77;;;16.70;51.30;;;;;;5114032;28;20180;-54
2023/02/06 07:24:50;;;;;;;2.50;1.70;;;16.80;50.90;;;;;;5113831;28;20165;-55
2023/02/06 07:27:15;;;;;;;2.70;1.80;;;17.10;50.60;;;;;;5114393;28;20268;-54
2023/02/06 07:29:41;;;;;;;5.38;2.00;;;17.30;50.10;;;;;;5114103;28;20181;-56
2023/02/06 07:32:06;;;;;;;2.58;1.63;;;17.50;49.90;;;;;;5113709;28;20177;-57
2023/02/06 07:34:32;;;;;;;4.28;2.08;;;17.50;49.80;;;;;;5114173;28;20180;-56
2023/02/06 07:37:00;;;;;;;4.22;1.83;;;17.60;49.80;;;;;;5113421;28;20177;-58
2023/02/06 07:39:26;;;;;;;5.32;1.80;;;17.60;49.80;;;;;;5113941;28;20225;-58
2023/02/06 07:41:51;;;;;;;3.38;1.85;;;17.60;49.70;;;;;;5114198;28;20161;-58
2023/02/06 07:44:17;;;;;;;3.33;1.98;;;17.70;49.70;;;;;;5112253;28;20568;-58
2023/02/06 07:46:43;;;;;;;2.85;1.85;;;17.70;49.50;;;;;;5113975;28;20764;-57
2023/02/06 07:49:11;;;;;;;2.40;1.40;;;17.60;49.60;;;;;;5114005;28;20542;-55
2023/02/06 07:51:37;;;;;;;2.70;1.70;;;17.60;49.70;;;;;;5112826;28;20177;-56
2023/02/06 07:54:02;;;;;;;4.07;1.92;;;17.50;49.90;;;;;;5114051;28;20180;-56
2023/02/06 07:56:28;;;;;;;3.30;2.13;;;17.50;50.00;;;;;;5113644;28;20637;-56
2023/02/06 07:58:53;;;;;;;3.83;1.92;;;17.50;50.00;;;;;;5113022;28;20209;-56
2023/02/06 08:01:22;;;;;;;3.42;1.73;;;17.50;50.10;;;;;;5113612;28;20260;-54
2023/02/06 08:03:49;;;;;;;3.30;1.98;;;17.50;50.10;;;;;;5113620;28;20635;-65
2023/02/06 08:06:14;;;;;;;5.10;2.25;;;17.40;50.20;;;;;;5113359;28;20169;-64
2023/02/06 08:08:40;;;;;;;2.58;1.77;;;17.60;50.20;;;;;;5113214;28;20723;-63
2023/02/06 08:11:06;;;;;;;3.88;2.00;;;17.50;50.30;;;;;;5113745;28;20176;-72
2023/02/06 08:13:32;;;;;;;3.70;2.00;;;17.50;50.30;;;;;;5112657;28;20177;-71
2023/02/06 08:16:01;;;;;;;4.28;2.08;;;17.60;50.60;;;;;;5113508;28;20175;-71
2023/02/06 08:18:27;;;;;;;3.70;1.95;;;17.60;50.80;;;;;;5112384;28;20707;-70
2023/02/06 08:20:52;;;;;;;7.28;1.50;;;17.60;50.90;;;;;;5112085;28;20223;-62
2023/02/06 08:23:18;;;;;;;3.92;2.00;;;17.50;50.90;;;;;;5113347;28;20172;-63
2023/02/06 08:25:44;;;;;;;4.22;1.80;;;17.50;50.80;;;;;;5113583;28;20168;-63
2023/02/06 08:28:13;;;;;;;5.38;1.83;;;17.60;50.70;;;;;;5112643;28;20535;-62
2023/02/06 08:30:39;;;;;;;3.97;1.85;;;17.70;50.60;;;;;;5113055;28;20169;-63
2023/02/06 08:33:04;;;;;;;3.35;1.55;;;17.70;50.50;;;;;;5112515;28;20206;-63
2023/02/06 08:35:30;;;;;;;4.20;2.20;;;17.80;50.60;;;;;;5112741;28;20173;-62
2023/02/06 08:37:55;;;;;;;4.43;1.83;;;17.70;50.50;;;;;;5113187;28;20200;-64
2023/02/06 08:40:21;;;;;;;3.47;1.75;;;17.60;50.60;;;;;;5112401;28;20176;-63
2023/02/06 08:42:49;;;;;;;3.75;1.77;;;17.60;50.80;;;;;;5113405;28;20184;-63
2023/02/06 08:45:15;;;;;;;7.28;2.05;;;17.50;50.90;;;;;;5113187;28;20522;-62
2023/02/06 08:47:40;;;;;;;3.28;1.65;;;17.50;51.00;;;;;;5112220;28;20181;-63
2023/02/06 08:50:06;;;;;;;3.35;1.77;;;17.50;51.10;;;;;;5113263;28;20169;-63
2023/02/06 08:52:32;;;;;;;2.40;1.65;;;17.40;51.10;;;;;;5113291;28;20173;-63
2023/02/06 08:54:57;;;;;;;2.88;1.77;;;17.40;51.30;;;;;;5113509;28;20666;-70
2023/02/06 08:57:23;;;;;;;3.88;1.73;;;17.40;51.30;;;;;;5116866;28;20209;-69
2023/02/06 08:59:49;;;;;;;3.92;2.10;;;17.40;51.40;;;;;;5117073;28;20181;-69
2023/02/06 09:02:14;;;;;;;2.92;1.75;;;17.30;51.40;;;;;;5115844;28;20181;-71
2023/02/06 09:04:41;;;;;;;3.53;1.70;;;17.40;51.40;;;;;;5116859;28;20184;-71
2023/02/06 09:07:07;;;;;;;2.70;1.50;;;17.30;51.40;;;;;;5116966;28;20169;-70
2023/02/06 09:09:32;;;;;;;4.00;1.85;;;17.40;51.40;;;;;;5115939;28;20181;-70
2023/02/06 09:12:02;;;;;;;4.85;1.80;;;17.30;51.30;;;;;;5117001;28;20210;-70
2023/02/06 09:14:28;;;;;;;5.15;2.00;;;17.30;51.40;;;;;;5116644;28;20222;-70
2023/02/06 09:16:55;;;;;;;3.50;2.00;;;17.30;51.50;;;;;;5116086;28;20169;-70
2023/02/06 09:19:21;;;;;;;3.45;1.98;;;17.20;51.50;;;;;;5116251;28;20233;-70
2023/02/06 09:21:46;;;;;;;4.05;1.90;;;17.20;51.70;;;;;;5116973;28;20272;-71
2023/02/06 09:24:12;;;;;;;3.50;1.70;;;17.10;51.60;;;;;;5115986;28;20650;-70
2023/02/06 09:26:40;;;;;;;3.58;1.65;;;17.20;51.70;;;;;;5116134;28;20175;-70
2023/02/06 09:29:07;;;;;;;5.10;2.10;;;17.20;51.70;;;;;;5116785;28;20204;-70
2023/02/06 09:31:34;;;;;;;3.92;2.03;;;17.20;51.70;;;;;;5115548;28;20593;-70
2023/02/06 09:34:00;;;;;;;3.15;1.90;;;17.20;51.60;;;;;;5116697;28;20189;-71
2023/02/06 09:36:25;;;;;;;4.35;1.92;;;17.20;51.60;;;;;;5115731;28;20176;-70
2023/02/06 09:38:56;;;;;;;4.78;1.83;;;17.30;51.60;;;;;;5116464;28;20267;-70
2023/02/06 09:41:40;;;;;;;4.00;1.80;;;17.30;51.50;;;;;;5115810;28;20582;-69
2023/02/06 09:44:17;;;;;;;3.60;1.75;;;17.30;51.50;;;;;;5115689;28;20214;-68
2023/02/06 09:46:49;;;;;;;5.63;1.80;;;17.30;51.50;;;;;;5082054;28;20173;-69
2023/02/06 09:49:21;;;;;;;4.45;1.83;;;17.30;51.50;;;;;;5116278;28;20183;-68
2023/02/06 09:52:08;;;;;;;2.83;1.65;;;17.20;51.60;;;;;;5097318;28;20185;-70
2023/02/06 09:54:57;;;;;;;4.32;2.15;;;17.20;51.70;;;;;;5115740;28;20599;-70
2023/02/06 09:57:40;;;;;;;3.63;1.80;;;17.20;51.70;;;;;;5115794;28;20169;-70
2023/02/06 10:00:36;;;;;;;3.72;2.13;;;17.20;51.70;;;;;;5098085;28;20254;-70
2023/02/06 10:03:24;;;;;;;4.25;2.00;;;17.30;51.60;;;;;;5101088;28;20181;-71
2023/02/06 10:05:53;;;;;;;3.10;1.33;;;17.40;51.60;;;;;;5098444;28;20184;-72
2023/02/06 10:08:29;;;;;;;4.70;1.75;;;17.40;51.50;;;;;;5115245;28;20177;-71
2023/02/06 10:10:55;;;;;;;5.10;2.10;;;17.50;51.50;;;;;;5098246;28;20268;-70
2023/02/06 10:13:23;;;;;;;3.47;1.92;;;17.50;51.40;;;;;;5079728;28;20696;-69
2023/02/06 10:15:55;;;;;;;6.15;2.20;;;17.40;51.50;;;;;;5097565;28;20249;-64
2023/02/06 10:18:29;;;;;;;2.80;1.60;;;17.40;51.60;;;;;;5096828;28;20267;-64
2023/02/06 10:20:58;;;;;;;7.32;2.20;;;17.40;51.70;;;;;;5080486;28;20185;-64
2023/02/06 10:23:36;;;;;;;3.63;1.67;;;17.30;51.80;;;;;;5080873;28;20223;-64
2023/02/06 10:26:16;;;;;;;3.92;1.90;;;17.40;51.80;;;;;;5096834;28;20169;-64
2023/02/06 10:28:46;;;;;;;4.53;2.13;;;17.40;51.80;;;;;;5115213;28;20204;-65
2023/02/06 10:31:15;;;;;;;4.30;1.70;;;17.50;51.90;;;;;;5096675;28;20176;-64
2023/02/06 10:34:18;;;;;;;4.88;2.25;;;17.50;51.80;;;;;;5095335;28;20177;-65
2023/02/06 10:36:55;;;;;;;5.50;2.35;;;17.50;51.80;;;;;;5113479;28;20306;-65
2023/02/06 10:39:33;;;;;;;5.10;1.90;;;17.50;51.80;;;;;;5114151;28;20642;-64
2023/02/06 10:42:30;;;;;;;4.22;2.00;;;17.50;51.90;;;;;;5096897;28;20177;-64
2023/02/06 10:45:41;;;;;;;5.45;1.98;;;17.40;51.90;;;;;;5100041;28;20209;-63
2023/02/06 10:48:17;;;;;;;5.47;1.70;;;17.40;52.00;;;;;;5082395;28;20181;-64
2023/02/06 10:51:13;;;;;;;5.18;2.50;;;17.40;52.10;;;;;;5097839;28;20208;-64
2023/02/06 10:53:49;;;;;;;5.05;1.98;;;17.30;52.20;;;;;;5088070;28;20207;-63
2023/02/06 10:56:17;;;;;;;5.97;2.03;;;17.30;52.30;;;;;;5081474;28;20173;-64
2023/02/06 10:58:51;;;;;;;5.55;2.03;;;17.40;52.30;;;;;;5114824;28;20228;-64
2023/02/06 11:01:16;;;;;;;4.13;1.90;;;17.40;52.10;;;;;;5096498;28;20218;-63
2023/02/06 11:03:58;;;;;;;4.50;1.95;;;17.50;52.70;;;;;;5096029;28;20174;-64
2023/02/06 11:06:25;;;;;;;7.05;1.88;;;17.40;52.20;;;;;;5077211;28;20166;-64
2023/02/06 11:08:51;;;;;;;5.45;2.30;;;17.40;52.30;;;;;;5078035;28;20619;-65
2023/02/06 11:11:25;;;;;;;3.75;1.90;;;17.30;52.30;;;;;;5113974;28;20639;-63
2023/02/06 11:13:57;;;;;;;3.97;1.98;;;17.30;52.30;;;;;;5096813;28;20193;-63
2023/02/06 11:16:26;;;;;;;3.60;1.75;;;17.30;52.40;;;;;;5096463;28;20169;-63
2023/02/06 11:18:53;;;;;;;6.10;2.03;;;17.20;52.40;;;;;;5114518;28;20228;-63
2023/02/06 11:21:41;;;;;;;6.82;2.33;;;17.20;52.50;;;;;;5096214;28;20174;-64
2023/02/06 11:24:08;;;;;;;4.45;2.10;;;17.20;52.50;;;;;;5113603;28;20176;-64
2023/02/06 11:26:41;;;;;;;4.85;2.00;;;17.10;52.40;;;;;;5114170;28;20173;-65
2023/02/06 11:29:35;;;;;;;4.85;1.77;;;17.10;52.50;;;;;;5095572;28;20181;-64
2023/02/06 11:32:05;;;;;;;6.05;2.10;;;17.10;52.50;;;;;;5096071;28;20165;-64
2023/02/06 11:34:51;;;;;;;4.93;1.98;;;17.10;52.60;;;;;;5095569;28;20188;-65
2023/02/06 11:37:32;;;;;;;8.60;2.40;;;17.00;52.90;;;;;;5097858;28;20165;-64
2023/02/06 11:40:16;;;;;;;6.28;2.10;;;17.00;52.70;;;;;;5114170;28;20206;-64
2023/02/06 11:42:45;;;;;;;5.22;2.20;;;17.00;52.80;;;;;;5113847;28;20541;-64
2023/02/06 11:45:29;;;;;;;4.93;1.73;;;17.10;52.80;;;;;;5112906;28;20263;-64
2023/02/06 11:47:55;;;;;;;4.10;1.95;;;17.20;52.80;;;;;;5113908;28;20173;-65
2023/02/06 11:50:24;;;;;;;4.90;1.98;;;17.30;52.70;;;;;;5112415;28;20211;-64
2023/02/06 11:52:54;;;;;;;2.72;1.60;;;17.50;52.60;;;;;;5113714;28;20568;-71
2023/02/06 11:55:24;;;;;;;4.22;1.50;;;17.60;52.20;;;;;;5096047;28;20177;-74
2023/02/06 11:58:05;;;;;;;5.70;1.70;;;17.80;52.10;;;;;;5113211;28;20792;-65
2023/02/06 12:00:30;;;;;;;6.65;2.13;;;18.00;51.90;;;;;;5113288;28;20212;-66
2023/02/06 12:02:56;;;;;;;4.47;1.67;;;18.30;51.40;;;;;;5113761;28;20222;-66
2023/02/06 12:05:24;;;;;;;3.60;1.70;;;18.60;50.90;;;;;;5112652;28;20631;-66
2023/02/06 12:07:56;;;;;;;3.10;1.60;;;18.70;50.70;;;;;;5113567;28;20177;-66
2023/02/06 12:10:22;;;;;;;3.72;1.80;;;18.80;50.60;;;;;;5113397;28;20173;-64
2023/02/06 12:12:54;;;;;;;5.40;1.83;;;19.00;50.50;;;;;;5078242;28;20169;-65
2023/02/06 12:15:22;;;;;;;3.13;1.42;;;19.00;50.50;;;;;;5078234;28;20274;-65
2023/02/06 12:18:04;;;;;;;3.45;1.35;;;19.10;50.40;;;;;;5113384;28;20252;-64
2023/02/06 12:20:31;;;;;;;4.80;1.77;;;19.20;50.20;;;;;;5094424;28;20192;-64
2023/02/06 12:23:06;;;;;;;4.25;1.63;;;19.20;50.10;;;;;;5095369;28;20635;-65
2023/02/06 12:25:34;;;;;;;3.03;1.60;;;19.30;50.00;;;;;;5078142;28;20176;-64
2023/02/06 12:28:20;;;;;;;2.92;1.52;;;19.30;50.00;;;;;;5113385;28;20188;-74
2023/02/06 12:30:59;;;;;;;4.22;1.70;;;19.30;49.90;;;;;;5112610;28;20172;-73
2023/02/06 12:33:32;;;;;;;2.70;1.48;;;19.30;49.90;;;;;;5093953;28;20666;-72
2023/02/06 12:36:15;;;;;;;3.70;1.60;;;19.20;50.00;;;;;;5113332;28;20624;-74
2023/02/06 12:38:49;;;;;;;4.10;1.67;;;19.20;50.00;;;;;;5095858;28;20212;-72
2023/02/06 12:41:37;;;;;;;3.88;1.50;;;19.10;50.00;;;;;;5094263;28;20176;-72
2023/02/06 12:44:29;;;;;;;5.93;1.50;;;19.00;50.00;;;;;;5095744;28;20827;-73
2023/02/06 12:47:03;;;;;;;4.15;1.80;;;19.00;50.20;;;;;;5080668;28;20196;-63
2023/02/06 12:49:48;;;;;;;5.05;2.00;;;19.10;50.20;;;;;;5096291;28;20183;-74
2023/02/06 12:52:23;;;;;;;3.45;1.30;;;19.10;50.10;;;;;;5084506;28;20180;-64
2023/02/06 12:55:07;;;;;;;4.70;1.90;;;19.30;50.10;;;;;;5112600;28;20176;-62
2023/02/06 12:57:33;;;;;;;3.80;1.60;;;19.40;50.00;;;;;;5112764;28;20567;-63
2023/02/06 13:00:04;;;;;;;4.40;1.50;;;19.50;50.00;;;;;;5094992;28;20657;-63